Time,TemperatureF,DewpointF,PressureIn,WindDirection,WindDirectionDegrees,WindSpeedMPH,WindSpeedGustMPH,Humidity,HourlyPrecipIn,Conditions,Clouds,dailyrainin,SoftwareType,DateUTC
2013-12-03 00:00:00,41.4,37.5,29.90,West,265,0.0,0.0,86,0.00,,---,0.00,VWS V14.01,2013-12-03 05:00:00,
2013-12-03 00:04:00,41.3,37.4,29.90,West,265,0.0,0.0,86,0.00,,---,0.00,VWS V14.01,2013-12-03 05:04:00,
2013-12-03 00:05:00,41.3,37.4,29.90,West,265,0.0,0.0,86,0.00,,---,0.00,VWS V14.01,2013-12-03 05:05:00,
2013-12-03 00:09:00,41.0,36.8,29.90,West,265,0.0,0.0,85,0.00,,---,0.00,VWS V14.01,2013-12-03 05:09:00,
2013-12-03 00:10:00,41.0,36.8,29.90,West,265,0.0,0.0,85,0.00,,---,0.00,VWS V14.01,2013-12-03 05:10:00,
2013-12-03 00:14:00,40.7,36.8,29.90,West,265,0.0,0.0,86,0.00,,---,0.00,VWS V14.01,2013-12-03 05:14:00,
2013-12-03 00:15:00,40.7,36.8,29.90,West,265,0.0,0.0,86,0.00,,---,0.00,VWS V14.01,2013-12-03 05:15:00,
2013-12-03 00:19:00,40.4,36.5,29.90,West,265,0.0,0.0,86,0.00,,---,0.00,VWS V14.01,2013-12-03 05:19:00,
2013-12-03 00:20:00,40.4,36.5,29.90,West,265,0.0,0.0,86,0.00,,---,0.00,VWS V14.01,2013-12-03 05:20:00,
2013-12-03 00:24:00,40.2,36.7,29.90,West,265,0.0,0.0,87,0.00,,---,0.00,VWS V14.01,2013-12-03 05:24:00,
2013-12-03 00:25:00,40.2,36.7,29.90,West,265,0.0,0.0,87,0.00,,---,0.00,VWS V14.01,2013-12-03 05:25:00,
2013-12-03 00:29:00,40.0,36.5,29.90,West,265,0.0,0.0,87,0.00,,---,0.00,VWS V14.01,2013-12-03 05:29:00,
2013-12-03 00:30:00,40.0,36.5,29.90,West,265,0.0,0.0,87,0.00,,---,0.00,VWS V14.01,2013-12-03 05:30:00,
2013-12-03 00:34:00,39.8,36.2,29.90,West,265,0.0,0.0,87,0.00,,---,0.00,VWS V14.01,2013-12-03 05:34:00,
2013-12-03 00:35:00,39.8,36.2,29.90,West,265,0.0,0.0,87,0.00,,---,0.00,VWS V14.01,2013-12-03 05:35:00,
2013-12-03 00:39:00,39.5,36.0,29.90,West,265,0.0,0.0,87,0.00,,---,0.00,VWS V14.01,2013-12-03 05:39:00,
2013-12-03 00:40:00,39.5,36.0,29.90,West,265,0.0,0.0,87,0.00,,---,0.00,VWS V14.01,2013-12-03 05:40:00,
2013-12-03 00:44:00,39.3,36.0,29.90,West,265,0.0,0.0,88,0.00,,---,0.00,VWS V14.01,2013-12-03 05:44:00,
2013-12-03 00:45:00,39.3,36.0,29.90,West,265,0.0,0.0,88,0.00,,---,0.00,VWS V14.01,2013-12-03 05:45:00,
2013-12-03 00:49:00,39.1,35.8,29.90,West,265,0.0,0.0,88,0.00,,---,0.00,VWS V14.01,2013-12-03 05:49:00,
2013-12-03 00:50:00,39.1,35.8,29.90,West,265,0.0,0.0,88,0.00,,---,0.00,VWS V14.01,2013-12-03 05:50:00,
2013-12-03 00:54:00,39.0,36.0,29.90,West,265,0.0,0.0,89,0.00,,---,0.00,VWS V14.01,2013-12-03 05:54:00,
2013-12-03 00:55:00,39.0,36.0,29.90,West,265,0.0,0.0,89,0.00,,---,0.00,VWS V14.01,2013-12-03 05:55:00,
2013-12-03 01:00:00,38.9,35.7,29.90,West,265,0.0,0.0,88,0.00,,---,0.00,VWS V14.01,2013-12-03 06:00:00,
2013-12-03 01:04:00,38.7,35.5,29.90,West,265,0.0,0.0,88,0.00,,---,0.00,VWS V14.01,2013-12-03 06:04:00,
2013-12-03 01:05:00,38.7,35.5,29.90,West,265,0.0,0.0,88,0.00,,---,0.00,VWS V14.01,2013-12-03 06:05:00,
2013-12-03 01:09:00,38.5,35.5,29.90,West,265,0.0,0.0,89,0.00,,---,0.00,VWS V14.01,2013-12-03 06:09:00,
2013-12-03 01:10:00,38.5,35.5,29.90,West,265,0.0,0.0,89,0.00,,---,0.00,VWS V14.01,2013-12-03 06:10:00,
2013-12-03 01:14:00,38.3,35.3,29.91,West,265,0.0,0.0,89,0.00,,---,0.00,VWS V14.01,2013-12-03 06:14:00,
2013-12-03 01:15:00,38.3,35.3,29.91,West,265,0.0,0.0,89,0.00,,---,0.00,VWS V14.01,2013-12-03 06:15:00,
2013-12-03 01:19:00,38.1,35.2,29.90,West,265,0.0,0.0,89,0.00,,---,0.00,VWS V14.01,2013-12-03 06:19:00,
2013-12-03 01:20:00,38.1,35.2,29.90,West,265,0.0,0.0,89,0.00,,---,0.00,VWS V14.01,2013-12-03 06:20:00,
2013-12-03 01:24:00,37.9,35.0,29.90,West,265,0.0,0.0,89,0.00,,---,0.00,VWS V14.01,2013-12-03 06:24:00,
2013-12-03 01:25:00,37.9,35.0,29.90,West,265,0.0,0.0,89,0.00,,---,0.00,VWS V14.01,2013-12-03 06:25:00,
2013-12-03 01:29:00,37.8,35.1,29.91,West,265,0.0,0.0,90,0.00,,---,0.00,VWS V14.01,2013-12-03 06:29:00,
2013-12-03 01:30:00,37.8,35.1,29.91,West,265,0.0,0.0,90,0.00,,---,0.00,VWS V14.01,2013-12-03 06:30:00,
2013-12-03 01:35:00,37.6,34.9,29.91,West,265,0.0,0.0,90,0.00,,---,0.00,VWS V14.01,2013-12-03 06:35:00,
2013-12-03 01:39:00,37.4,34.7,29.91,West,265,0.0,0.0,90,0.00,,---,0.00,VWS V14.01,2013-12-03 06:39:00,
2013-12-03 01:40:00,37.4,34.7,29.91,West,265,0.0,0.0,90,0.00,,---,0.00,VWS V14.01,2013-12-03 06:40:00,
2013-12-03 01:44:00,37.3,34.6,29.91,West,265,0.0,0.0,90,0.00,,---,0.00,VWS V14.01,2013-12-03 06:44:00,
2013-12-03 01:45:00,37.3,34.6,29.91,West,265,0.0,0.0,90,0.00,,---,0.00,VWS V14.01,2013-12-03 06:45:00,
2013-12-03 01:49:00,37.2,34.5,29.91,West,265,0.0,0.0,90,0.00,,---,0.00,VWS V14.01,2013-12-03 06:49:00,
2013-12-03 01:50:00,37.2,34.5,29.91,West,265,0.0,0.0,90,0.00,,---,0.00,VWS V14.01,2013-12-03 06:50:00,
2013-12-03 01:54:00,37.0,34.3,29.91,West,265,0.0,0.0,90,0.00,,---,0.00,VWS V14.01,2013-12-03 06:54:00,
2013-12-03 01:55:00,37.0,34.3,29.91,West,265,0.0,0.0,90,0.00,,---,0.00,VWS V14.01,2013-12-03 06:55:00,
2013-12-03 01:59:00,36.8,34.2,29.91,West,265,0.0,0.0,90,0.00,,---,0.00,VWS V14.01,2013-12-03 06:59:00,
2013-12-03 02:00:00,36.8,34.2,29.91,West,265,0.0,0.0,90,0.00,,---,0.00,VWS V14.01,2013-12-03 07:00:00,
2013-12-03 02:05:00,36.7,34.0,29.90,West,265,0.0,0.0,90,0.00,,---,0.00,VWS V14.01,2013-12-03 07:05:00,
2013-12-03 02:09:00,36.6,34.0,29.90,West,265,0.0,0.0,90,0.00,,---,0.00,VWS V14.01,2013-12-03 07:09:00,
2013-12-03 02:10:00,36.6,34.0,29.90,West,265,0.0,0.0,90,0.00,,---,0.00,VWS V14.01,2013-12-03 07:10:00,
2013-12-03 02:14:00,36.5,34.1,29.90,West,265,0.0,0.0,91,0.00,,---,0.00,VWS V14.01,2013-12-03 07:14:00,
2013-12-03 02:15:00,36.5,34.1,29.90,West,265,0.0,0.0,91,0.00,,---,0.00,VWS V14.01,2013-12-03 07:15:00,
2013-12-03 02:20:00,36.3,33.9,29.90,West,265,0.0,0.0,91,0.00,,---,0.00,VWS V14.01,2013-12-03 07:20:00,
2013-12-03 02:24:00,36.2,33.8,29.90,West,265,0.0,0.0,91,0.00,,---,0.00,VWS V14.01,2013-12-03 07:24:00,
2013-12-03 02:25:00,36.2,33.8,29.90,West,265,0.0,0.0,91,0.00,,---,0.00,VWS V14.01,2013-12-03 07:25:00,
2013-12-03 02:29:00,36.2,34.1,29.89,West,265,0.0,0.0,92,0.00,,---,0.00,VWS V14.01,2013-12-03 07:29:00,
2013-12-03 02:30:00,36.2,34.1,29.89,West,265,0.0,0.0,92,0.00,,---,0.00,VWS V14.01,2013-12-03 07:30:00,
2013-12-03 02:34:00,36.0,33.6,29.90,West,265,0.0,0.0,91,0.00,,---,0.00,VWS V14.01,2013-12-03 07:34:00,
2013-12-03 02:35:00,36.0,33.6,29.90,West,265,0.0,0.0,91,0.00,,---,0.00,VWS V14.01,2013-12-03 07:35:00,
2013-12-03 02:39:00,35.7,33.3,29.90,West,265,0.0,0.0,91,0.00,,---,0.00,VWS V14.01,2013-12-03 07:39:00,
2013-12-03 02:40:00,35.7,33.3,29.90,West,265,0.0,0.0,91,0.00,,---,0.00,VWS V14.01,2013-12-03 07:40:00,
2013-12-03 02:44:00,35.5,33.1,29.90,West,265,0.0,0.0,91,0.00,,---,0.00,VWS V14.01,2013-12-03 07:44:00,
2013-12-03 02:45:00,35.5,33.1,29.90,West,265,0.0,0.0,91,0.00,,---,0.00,VWS V14.01,2013-12-03 07:45:00,
2013-12-03 02:50:00,35.4,33.0,29.90,West,265,0.0,0.0,91,0.00,,---,0.00,VWS V14.01,2013-12-03 07:50:00,
2013-12-03 02:54:00,35.5,33.4,29.89,West,265,0.0,0.0,92,0.00,,---,0.00,VWS V14.01,2013-12-03 07:54:00,
2013-12-03 02:55:00,35.5,33.4,29.89,West,265,0.0,0.0,92,0.00,,---,0.00,VWS V14.01,2013-12-03 07:55:00,
2013-12-03 02:59:00,35.5,33.4,29.89,West,265,0.0,0.0,92,0.00,,---,0.00,VWS V14.01,2013-12-03 07:59:00,
2013-12-03 03:00:00,35.5,33.4,29.89,West,265,0.0,0.0,92,0.00,,---,0.00,VWS V14.01,2013-12-03 08:00:00,
2013-12-03 03:04:00,35.4,33.3,29.89,West,265,0.0,0.0,92,0.00,,---,0.00,VWS V14.01,2013-12-03 08:04:00,
2013-12-03 03:05:00,35.4,33.3,29.89,West,265,0.0,0.0,92,0.00,,---,0.00,VWS V14.01,2013-12-03 08:05:00,
2013-12-03 03:09:00,35.2,32.8,29.89,West,265,0.0,0.0,91,0.00,,---,0.00,VWS V14.01,2013-12-03 08:09:00,
2013-12-03 03:10:00,35.2,32.8,29.89,West,265,0.0,0.0,91,0.00,,---,0.00,VWS V14.01,2013-12-03 08:10:00,
2013-12-03 03:14:00,35.0,32.9,29.89,West,265,0.0,0.0,92,0.00,,---,0.00,VWS V14.01,2013-12-03 08:14:00,
2013-12-03 03:15:00,35.0,32.9,29.89,West,265,0.0,0.0,92,0.00,,---,0.00,VWS V14.01,2013-12-03 08:15:00,
2013-12-03 03:20:00,34.9,32.8,29.89,West,265,0.0,0.0,92,0.00,,---,0.00,VWS V14.01,2013-12-03 08:20:00,
2013-12-03 03:24:00,34.7,32.3,29.89,West,265,0.0,0.0,91,0.00,,---,0.00,VWS V14.01,2013-12-03 08:24:00,
2013-12-03 03:25:00,34.7,32.3,29.89,West,265,0.0,0.0,91,0.00,,---,0.00,VWS V14.01,2013-12-03 08:25:00,
2013-12-03 03:30:00,34.4,32.0,29.90,West,265,0.0,0.0,91,0.00,,---,0.00,VWS V14.01,2013-12-03 08:30:00,
2013-12-03 03:34:00,34.3,32.2,29.90,West,265,0.0,0.0,92,0.00,,---,0.00,VWS V14.01,2013-12-03 08:34:00,
2013-12-03 03:35:00,34.3,32.2,29.90,West,265,0.0,0.0,92,0.00,,---,0.00,VWS V14.01,2013-12-03 08:35:00,
2013-12-03 03:39:00,34.2,32.1,29.89,West,265,0.0,0.0,92,0.00,,---,0.00,VWS V14.01,2013-12-03 08:39:00,
2013-12-03 03:40:00,34.2,32.1,29.89,West,265,0.0,0.0,92,0.00,,---,0.00,VWS V14.01,2013-12-03 08:40:00,
2013-12-03 03:45:00,34.1,32.0,29.89,West,265,0.0,0.0,92,0.00,,---,0.00,VWS V14.01,2013-12-03 08:45:00,
2013-12-03 03:49:00,34.0,31.9,29.89,West,265,0.0,0.0,92,0.00,,---,0.00,VWS V14.01,2013-12-03 08:49:00,
2013-12-03 03:50:00,34.0,31.9,29.89,West,265,0.0,0.0,92,0.00,,---,0.00,VWS V14.01,2013-12-03 08:50:00,
2013-12-03 03:54:00,33.8,31.7,29.90,West,265,0.0,0.0,92,0.00,,---,0.00,VWS V14.01,2013-12-03 08:54:00,
2013-12-03 03:55:00,33.8,31.7,29.90,West,265,0.0,0.0,92,0.00,,---,0.00,VWS V14.01,2013-12-03 08:55:00,
2013-12-03 03:59:00,33.4,31.3,29.90,West,265,0.0,0.0,92,0.00,,---,0.00,VWS V14.01,2013-12-03 08:59:00,
2013-12-03 04:00:00,33.4,31.3,29.90,West,265,0.0,0.0,92,0.00,,---,0.00,VWS V14.01,2013-12-03 09:00:00,
2013-12-03 04:04:00,33.7,31.9,29.91,West,265,0.0,0.0,93,0.00,,---,0.00,VWS V14.01,2013-12-03 09:04:00,
2013-12-03 04:05:00,33.7,31.9,29.91,West,265,0.0,0.0,93,0.00,,---,0.00,VWS V14.01,2013-12-03 09:05:00,
2013-12-03 04:09:00,34.0,32.5,29.91,West,265,0.0,0.0,94,0.00,,---,0.00,VWS V14.01,2013-12-03 09:09:00,
2013-12-03 04:10:00,34.0,32.5,29.91,West,265,0.0,0.0,94,0.00,,---,0.00,VWS V14.01,2013-12-03 09:10:00,
2013-12-03 04:14:00,34.2,32.7,29.90,West,265,0.0,0.0,94,0.00,,---,0.00,VWS V14.01,2013-12-03 09:14:00,
2013-12-03 04:15:00,34.2,32.7,29.90,West,265,0.0,0.0,94,0.00,,---,0.00,VWS V14.01,2013-12-03 09:15:00,
2013-12-03 04:20:00,34.0,32.2,29.90,West,265,0.0,0.0,93,0.00,,---,0.00,VWS V14.01,2013-12-03 09:20:00,
2013-12-03 04:24:00,33.7,31.9,29.90,West,265,0.0,0.0,93,0.00,,---,0.00,VWS V14.01,2013-12-03 09:24:00,
2013-12-03 04:25:00,33.7,31.9,29.90,West,265,0.0,0.0,93,0.00,,---,0.00,VWS V14.01,2013-12-03 09:25:00,
2013-12-03 04:30:00,33.4,31.6,29.91,West,265,0.0,0.0,93,0.00,,---,0.00,VWS V14.01,2013-12-03 09:30:00,
2013-12-03 04:34:00,33.2,31.4,29.91,West,265,0.0,0.0,93,0.00,,---,0.00,VWS V14.01,2013-12-03 09:34:00,
2013-12-03 04:35:00,33.2,31.4,29.91,West,265,0.0,0.0,93,0.00,,---,0.00,VWS V14.01,2013-12-03 09:35:00,
2013-12-03 04:39:00,33.0,31.2,29.91,West,265,0.0,0.0,93,0.00,,---,0.00,VWS V14.01,2013-12-03 09:39:00,
2013-12-03 04:40:00,33.0,31.2,29.91,West,265,0.0,0.0,93,0.00,,---,0.00,VWS V14.01,2013-12-03 09:40:00,
2013-12-03 04:44:00,32.9,31.1,29.91,West,265,0.0,0.0,93,0.00,,---,0.00,VWS V14.01,2013-12-03 09:44:00,
2013-12-03 04:45:00,32.9,31.1,29.91,West,265,0.0,0.0,93,0.00,,---,0.00,VWS V14.01,2013-12-03 09:45:00,
2013-12-03 04:50:00,32.7,30.9,29.91,West,265,0.0,0.0,93,0.00,,---,0.00,VWS V14.01,2013-12-03 09:50:00,
2013-12-03 04:54:00,32.6,30.8,29.91,West,265,0.0,0.0,93,0.00,,---,0.00,VWS V14.01,2013-12-03 09:54:00,
2013-12-03 04:55:00,32.6,30.8,29.91,West,265,0.0,0.0,93,0.00,,---,0.00,VWS V14.01,2013-12-03 09:55:00,
2013-12-03 04:59:00,32.6,30.8,29.90,West,265,0.0,0.0,93,0.00,,---,0.00,VWS V14.01,2013-12-03 09:59:00,
2013-12-03 05:00:00,32.6,30.8,29.90,West,265,0.0,0.0,93,0.00,,---,0.00,VWS V14.01,2013-12-03 10:00:00,
2013-12-03 05:04:00,32.5,30.7,29.90,West,265,0.0,0.0,93,0.00,,---,0.00,VWS V14.01,2013-12-03 10:04:00,
2013-12-03 05:05:00,32.5,30.7,29.90,West,265,0.0,0.0,93,0.00,,---,0.00,VWS V14.01,2013-12-03 10:05:00,
2013-12-03 05:10:00,32.5,31.0,29.90,West,265,0.0,0.0,94,0.00,,---,0.00,VWS V14.01,2013-12-03 10:10:00,
2013-12-03 05:14:00,32.0,30.2,29.90,West,265,0.0,0.0,93,0.00,,---,0.00,VWS V14.01,2013-12-03 10:14:00,
2013-12-03 05:15:00,32.0,30.2,29.90,West,265,0.0,0.0,93,0.00,,---,0.00,VWS V14.01,2013-12-03 10:15:00,
2013-12-03 05:19:00,31.9,30.1,29.90,West,265,0.0,0.0,93,0.00,,---,0.00,VWS V14.01,2013-12-03 10:19:00,
2013-12-03 05:20:00,31.9,30.1,29.90,West,265,0.0,0.0,93,0.00,,---,0.00,VWS V14.01,2013-12-03 10:20:00,
2013-12-03 05:24:00,32.0,30.5,29.90,West,265,0.0,0.0,94,0.00,,---,0.00,VWS V14.01,2013-12-03 10:24:00,
2013-12-03 05:25:00,32.0,30.5,29.90,West,265,0.0,0.0,94,0.00,,---,0.00,VWS V14.01,2013-12-03 10:25:00,
2013-12-03 05:29:00,31.8,30.3,29.91,West,265,2.0,2.0,94,0.00,,---,0.00,VWS V14.01,2013-12-03 10:29:00,
2013-12-03 05:30:00,31.8,30.3,29.91,West,265,2.0,2.0,94,0.00,,---,0.00,VWS V14.01,2013-12-03 10:30:00,
2013-12-03 05:35:00,32.2,30.7,29.91,West,265,0.0,2.0,94,0.00,,---,0.00,VWS V14.01,2013-12-03 10:35:00,
2013-12-03 05:39:00,32.6,31.3,29.91,West,265,0.0,0.0,95,0.00,,---,0.00,VWS V14.01,2013-12-03 10:39:00,
2013-12-03 05:40:00,32.6,31.3,29.91,West,265,0.0,0.0,95,0.00,,---,0.00,VWS V14.01,2013-12-03 10:40:00,
2013-12-03 05:44:00,32.7,31.4,29.91,West,265,0.0,0.0,95,0.00,,---,0.00,VWS V14.01,2013-12-03 10:44:00,
2013-12-03 05:45:00,32.7,31.4,29.91,West,265,0.0,0.0,95,0.00,,---,0.00,VWS V14.01,2013-12-03 10:45:00,
2013-12-03 05:49:00,32.6,31.1,29.92,West,265,0.0,0.0,94,0.00,,---,0.00,VWS V14.01,2013-12-03 10:49:00,
2013-12-03 05:50:00,32.6,31.1,29.92,West,265,0.0,0.0,94,0.00,,---,0.00,VWS V14.01,2013-12-03 10:50:00,
2013-12-03 05:54:00,32.5,31.0,29.91,West,265,0.0,0.0,94,0.00,,---,0.00,VWS V14.01,2013-12-03 10:54:00,
2013-12-03 05:55:00,32.5,31.0,29.91,West,265,0.0,0.0,94,0.00,,---,0.00,VWS V14.01,2013-12-03 10:55:00,
2013-12-03 05:59:00,32.5,31.0,29.91,West,265,0.0,0.0,94,0.00,,---,0.00,VWS V14.01,2013-12-03 10:59:00,
2013-12-03 06:00:00,32.5,31.0,29.91,West,265,0.0,0.0,94,0.00,,---,0.00,VWS V14.01,2013-12-03 11:00:00,
2013-12-03 06:05:00,32.4,30.9,29.92,West,265,0.0,0.0,94,0.00,,---,0.00,VWS V14.01,2013-12-03 11:05:00,
2013-12-03 06:09:00,32.3,30.8,29.92,West,265,0.0,0.0,94,0.00,,---,0.00,VWS V14.01,2013-12-03 11:09:00,
2013-12-03 06:10:00,32.3,30.8,29.92,West,265,0.0,0.0,94,0.00,,---,0.00,VWS V14.01,2013-12-03 11:10:00,
2013-12-03 06:15:00,32.3,30.8,29.92,West,265,0.0,0.0,94,0.00,,---,0.00,VWS V14.01,2013-12-03 11:15:00,
2013-12-03 06:19:00,32.3,30.8,29.92,West,265,0.0,0.0,94,0.00,,---,0.00,VWS V14.01,2013-12-03 11:19:00,
2013-12-03 06:20:00,32.3,30.8,29.92,West,265,0.0,0.0,94,0.00,,---,0.00,VWS V14.01,2013-12-03 11:20:00,
2013-12-03 06:25:00,32.3,30.8,29.92,West,265,0.0,0.0,94,0.00,,---,0.00,VWS V14.01,2013-12-03 11:25:00,
2013-12-03 06:29:00,32.3,30.8,29.93,West,265,0.0,0.0,94,0.00,,---,0.00,VWS V14.01,2013-12-03 11:29:00,
2013-12-03 06:30:00,32.3,30.8,29.93,West,265,0.0,0.0,94,0.00,,---,0.00,VWS V14.01,2013-12-03 11:30:00,
2013-12-03 06:35:00,32.4,30.9,29.93,West,265,0.0,0.0,94,0.00,,---,0.00,VWS V14.01,2013-12-03 11:35:00,
2013-12-03 06:39:00,32.7,31.4,29.93,West,265,0.0,0.0,95,0.00,,---,0.00,VWS V14.01,2013-12-03 11:39:00,
2013-12-03 06:40:00,32.7,31.4,29.93,West,265,0.0,0.0,95,0.00,,---,0.00,VWS V14.01,2013-12-03 11:40:00,
2013-12-03 06:44:00,32.9,31.6,29.93,West,265,0.0,0.0,95,0.00,,---,0.00,VWS V14.01,2013-12-03 11:44:00,
2013-12-03 06:45:00,32.9,31.6,29.93,West,265,0.0,0.0,95,0.00,,---,0.00,VWS V14.01,2013-12-03 11:45:00,
2013-12-03 06:50:00,33.1,31.8,29.93,West,265,0.0,0.0,95,0.00,,---,0.00,VWS V14.01,2013-12-03 11:50:00,
2013-12-03 06:54:00,33.1,31.8,29.94,West,265,0.0,1.0,95,0.00,,---,0.00,VWS V14.01,2013-12-03 11:54:00,
2013-12-03 06:55:00,33.1,31.8,29.94,West,265,0.0,1.0,95,0.00,,---,0.00,VWS V14.01,2013-12-03 11:55:00,
2013-12-03 06:59:00,33.1,31.8,29.94,West,265,0.0,1.0,95,0.00,,---,0.00,VWS V14.01,2013-12-03 11:59:00,
2013-12-03 07:00:00,33.1,31.8,29.94,West,265,0.0,1.0,95,0.00,,---,0.00,VWS V14.01,2013-12-03 12:00:00,
2013-12-03 07:04:00,33.2,31.9,29.94,West,265,0.0,0.0,95,0.00,,---,0.00,VWS V14.01,2013-12-03 12:04:00,
2013-12-03 07:05:00,33.2,31.9,29.94,West,265,0.0,0.0,95,0.00,,---,0.00,VWS V14.01,2013-12-03 12:05:00,
2013-12-03 07:10:00,33.3,32.0,29.94,West,265,0.0,0.0,95,0.00,,---,0.00,VWS V14.01,2013-12-03 12:10:00,
2013-12-03 07:14:00,33.4,32.1,29.94,West,265,0.0,0.0,95,0.00,,---,0.00,VWS V14.01,2013-12-03 12:14:00,
2013-12-03 07:15:00,33.4,32.1,29.94,West,265,0.0,0.0,95,0.00,,---,0.00,VWS V14.01,2013-12-03 12:15:00,
2013-12-03 07:19:00,33.6,32.3,29.94,West,265,0.0,0.0,95,0.00,,---,0.00,VWS V14.01,2013-12-03 12:19:00,
2013-12-03 07:20:00,33.6,32.3,29.94,West,265,0.0,0.0,95,0.00,,---,0.00,VWS V14.01,2013-12-03 12:20:00,
2013-12-03 07:24:00,33.8,32.5,29.93,West,265,0.0,0.0,95,0.00,,---,0.00,VWS V14.01,2013-12-03 12:24:00,
2013-12-03 07:25:00,33.8,32.5,29.93,West,265,0.0,0.0,95,0.00,,---,0.00,VWS V14.01,2013-12-03 12:25:00,
2013-12-03 07:29:00,34.0,32.7,29.93,West,265,0.0,0.0,95,0.00,,---,0.00,VWS V14.01,2013-12-03 12:29:00,
2013-12-03 07:30:00,34.0,32.7,29.93,West,265,0.0,0.0,95,0.00,,---,0.00,VWS V14.01,2013-12-03 12:30:00,
2013-12-03 07:35:00,34.4,33.1,29.93,West,265,0.0,0.0,95,0.00,,---,0.00,VWS V14.01,2013-12-03 12:35:00,
2013-12-03 07:39:00,34.6,33.3,29.94,West,265,0.0,0.0,95,0.00,,---,0.00,VWS V14.01,2013-12-03 12:39:00,
2013-12-03 07:40:00,34.6,33.3,29.94,West,265,0.0,0.0,95,0.00,,---,0.00,VWS V14.01,2013-12-03 12:40:00,
2013-12-03 07:45:00,34.7,33.4,29.93,West,265,0.0,0.0,95,0.00,,---,0.00,VWS V14.01,2013-12-03 12:45:00,
2013-12-03 07:49:00,34.7,33.4,29.94,West,265,0.0,0.0,95,0.00,,---,0.00,VWS V14.01,2013-12-03 12:49:00,
2013-12-03 07:50:00,34.7,33.4,29.94,West,265,0.0,0.0,95,0.00,,---,0.00,VWS V14.01,2013-12-03 12:50:00,
2013-12-03 07:54:00,34.7,33.2,29.94,West,265,0.0,0.0,94,0.00,,---,0.00,VWS V14.01,2013-12-03 12:54:00,
2013-12-03 07:55:00,34.7,33.2,29.94,West,265,0.0,0.0,94,0.00,,---,0.00,VWS V14.01,2013-12-03 12:55:00,
2013-12-03 07:59:00,34.9,33.6,29.94,West,265,0.0,0.0,95,0.00,,---,0.00,VWS V14.01,2013-12-03 12:59:00,
2013-12-03 08:00:00,34.9,33.6,29.94,West,265,0.0,0.0,95,0.00,,---,0.00,VWS V14.01,2013-12-03 13:00:00,
2013-12-03 08:04:00,35.0,33.7,29.94,West,265,0.0,0.0,95,0.00,,---,0.00,VWS V14.01,2013-12-03 13:04:00,
2013-12-03 08:05:00,35.0,33.7,29.94,West,265,0.0,0.0,95,0.00,,---,0.00,VWS V14.01,2013-12-03 13:05:00,
2013-12-03 08:09:00,35.2,33.9,29.94,West,265,0.0,0.0,95,0.00,,---,0.00,VWS V14.01,2013-12-03 13:09:00,
2013-12-03 08:10:00,35.2,33.9,29.94,West,265,0.0,0.0,95,0.00,,---,0.00,VWS V14.01,2013-12-03 13:10:00,
2013-12-03 08:15:00,35.4,34.1,29.94,West,265,0.0,0.0,95,0.00,,---,0.00,VWS V14.01,2013-12-03 13:15:00,
2013-12-03 08:19:00,35.7,34.4,29.94,West,265,0.0,0.0,95,0.00,,---,0.00,VWS V14.01,2013-12-03 13:19:00,
2013-12-03 08:20:00,35.7,34.4,29.94,West,265,0.0,0.0,95,0.00,,---,0.00,VWS V14.01,2013-12-03 13:20:00,
2013-12-03 08:24:00,35.9,34.6,29.94,West,265,0.0,0.0,95,0.00,,---,0.00,VWS V14.01,2013-12-03 13:24:00,
2013-12-03 08:25:00,35.9,34.6,29.94,West,265,0.0,0.0,95,0.00,,---,0.00,VWS V14.01,2013-12-03 13:25:00,
2013-12-03 08:29:00,36.1,34.8,29.94,West,265,0.0,0.0,95,0.00,,---,0.00,VWS V14.01,2013-12-03 13:29:00,
2013-12-03 08:30:00,36.1,34.8,29.94,West,265,0.0,0.0,95,0.00,,---,0.00,VWS V14.01,2013-12-03 13:30:00,
2013-12-03 08:34:00,36.5,35.2,29.94,West,265,0.0,0.0,95,0.00,,---,0.00,VWS V14.01,2013-12-03 13:34:00,
2013-12-03 08:35:00,36.5,35.2,29.94,West,265,0.0,0.0,95,0.00,,---,0.00,VWS V14.01,2013-12-03 13:35:00,
2013-12-03 08:39:00,36.7,35.4,29.94,West,265,0.0,0.0,95,0.00,,---,0.00,VWS V14.01,2013-12-03 13:39:00,
2013-12-03 08:40:00,36.7,35.4,29.94,West,265,0.0,0.0,95,0.00,,---,0.00,VWS V14.01,2013-12-03 13:40:00,
2013-12-03 08:44:00,37.0,35.7,29.94,West,265,0.0,0.0,95,0.00,,---,0.00,VWS V14.01,2013-12-03 13:44:00,
2013-12-03 08:45:00,37.0,35.7,29.94,West,265,0.0,0.0,95,0.00,,---,0.00,VWS V14.01,2013-12-03 13:45:00,
2013-12-03 08:49:00,37.5,36.2,29.94,West,265,0.0,0.0,95,0.00,,---,0.00,VWS V14.01,2013-12-03 13:49:00,
2013-12-03 08:50:00,37.5,36.2,29.94,West,265,0.0,0.0,95,0.00,,---,0.00,VWS V14.01,2013-12-03 13:50:00,
2013-12-03 08:55:00,38.0,36.7,29.94,West,265,0.0,0.0,95,0.00,,---,0.00,VWS V14.01,2013-12-03 13:55:00,
2013-12-03 08:59:00,38.5,37.2,29.94,West,265,0.0,0.0,95,0.00,,---,0.00,VWS V14.01,2013-12-03 13:59:00,
2013-12-03 09:00:00,38.5,37.2,29.94,West,265,0.0,0.0,95,0.00,,---,0.00,VWS V14.01,2013-12-03 14:00:00,
2013-12-03 09:05:00,38.9,37.3,29.94,West,265,0.0,0.0,94,0.00,,---,0.00,VWS V14.01,2013-12-03 14:05:00,
2013-12-03 09:09:00,39.4,37.5,29.94,West,265,0.0,0.0,93,0.00,,---,0.00,VWS V14.01,2013-12-03 14:09:00,
2013-12-03 09:10:00,39.4,37.5,29.94,West,265,0.0,0.0,93,0.00,,---,0.00,VWS V14.01,2013-12-03 14:10:00,
2013-12-03 09:14:00,39.7,37.6,29.94,West,265,0.0,0.0,92,0.00,,---,0.00,VWS V14.01,2013-12-03 14:14:00,
2013-12-03 09:15:00,39.7,37.6,29.94,West,265,0.0,0.0,92,0.00,,---,0.00,VWS V14.01,2013-12-03 14:15:00,
2013-12-03 09:20:00,40.2,38.1,29.94,West,265,0.0,0.0,92,0.00,,---,0.00,VWS V14.01,2013-12-03 14:20:00,
2013-12-03 09:24:00,40.6,38.5,29.94,West,265,0.0,1.0,92,0.00,,---,0.00,VWS V14.01,2013-12-03 14:24:00,
2013-12-03 09:25:00,40.6,38.5,29.94,West,265,0.0,1.0,92,0.00,,---,0.00,VWS V14.01,2013-12-03 14:25:00,
2013-12-03 09:29:00,41.1,38.7,29.95,West,265,0.0,0.0,91,0.00,,---,0.00,VWS V14.01,2013-12-03 14:29:00,
2013-12-03 09:30:00,41.1,38.7,29.95,West,265,0.0,0.0,91,0.00,,---,0.00,VWS V14.01,2013-12-03 14:30:00,
2013-12-03 09:34:00,41.6,38.9,29.95,West,265,0.0,0.0,90,0.00,,---,0.00,VWS V14.01,2013-12-03 14:34:00,
2013-12-03 09:35:00,41.6,38.9,29.95,West,265,0.0,0.0,90,0.00,,---,0.00,VWS V14.01,2013-12-03 14:35:00,
2013-12-03 09:40:00,42.2,39.5,29.96,West,265,0.0,0.0,90,0.00,,---,0.00,VWS V14.01,2013-12-03 14:40:00,
2013-12-03 09:44:00,42.8,39.8,29.96,West,265,0.0,0.0,89,0.00,,---,0.00,VWS V14.01,2013-12-03 14:44:00,
2013-12-03 09:45:00,42.8,39.8,29.96,West,265,0.0,0.0,89,0.00,,---,0.00,VWS V14.01,2013-12-03 14:45:00,
2013-12-03 09:49:00,43.4,40.1,29.96,West,265,0.0,0.0,88,0.00,,---,0.00,VWS V14.01,2013-12-03 14:49:00,
2013-12-03 09:50:00,43.4,40.1,29.96,West,265,0.0,0.0,88,0.00,,---,0.00,VWS V14.01,2013-12-03 14:50:00,
2013-12-03 09:54:00,44.0,40.4,29.96,West,265,0.0,1.0,87,0.00,,---,0.00,VWS V14.01,2013-12-03 14:54:00,
2013-12-03 09:55:00,44.0,40.4,29.96,West,265,0.0,1.0,87,0.00,,---,0.00,VWS V14.01,2013-12-03 14:55:00,
2013-12-03 09:59:00,44.7,40.5,29.96,West,265,0.0,1.0,85,0.00,,---,0.00,VWS V14.01,2013-12-03 14:59:00,
2013-12-03 10:00:00,44.7,40.5,29.96,West,265,0.0,1.0,85,0.00,,---,0.00,VWS V14.01,2013-12-03 15:00:00,
2013-12-03 10:05:00,45.3,41.1,29.97,West,265,0.0,1.0,85,0.00,,---,0.00,VWS V14.01,2013-12-03 15:05:00,
2013-12-03 10:09:00,45.9,41.3,29.97,West,265,0.0,0.0,84,0.00,,---,0.00,VWS V14.01,2013-12-03 15:09:00,
2013-12-03 10:10:00,45.9,41.3,29.97,West,265,0.0,0.0,84,0.00,,---,0.00,VWS V14.01,2013-12-03 15:10:00,
2013-12-03 10:15:00,46.7,41.8,29.97,West,265,0.0,1.0,83,0.00,,---,0.00,VWS V14.01,2013-12-03 15:15:00,
2013-12-03 10:19:00,47.5,42.3,29.97,West,265,0.0,1.0,82,0.00,,---,0.00,VWS V14.01,2013-12-03 15:19:00,
2013-12-03 10:20:00,47.5,42.3,29.97,West,265,0.0,1.0,82,0.00,,---,0.00,VWS V14.01,2013-12-03 15:20:00,
2013-12-03 10:25:00,48.2,42.7,29.97,West,265,0.0,2.0,81,0.00,,---,0.00,VWS V14.01,2013-12-03 15:25:00,
2013-12-03 10:29:00,48.8,42.9,29.97,West,265,1.0,2.0,80,0.00,,---,0.00,VWS V14.01,2013-12-03 15:29:00,
2013-12-03 10:30:00,48.8,42.9,29.97,West,265,1.0,2.0,80,0.00,,---,0.00,VWS V14.01,2013-12-03 15:30:00,
2013-12-03 10:34:00,49.3,42.7,29.97,West,265,0.0,2.0,78,0.00,,---,0.00,VWS V14.01,2013-12-03 15:34:00,
2013-12-03 10:35:00,49.3,42.7,29.97,West,265,0.0,2.0,78,0.00,,---,0.00,VWS V14.01,2013-12-03 15:35:00,
2013-12-03 10:39:00,49.6,43.0,29.97,West,265,0.0,0.0,78,0.00,,---,0.00,VWS V14.01,2013-12-03 15:39:00,
2013-12-03 10:40:00,49.6,43.0,29.97,West,265,0.0,0.0,78,0.00,,---,0.00,VWS V14.01,2013-12-03 15:40:00,
2013-12-03 10:44:00,49.9,43.3,29.97,West,265,0.0,0.0,78,0.00,,---,0.00,VWS V14.01,2013-12-03 15:44:00,
2013-12-03 10:45:00,49.9,43.3,29.97,West,265,0.0,0.0,78,0.00,,---,0.00,VWS V14.01,2013-12-03 15:45:00,
2013-12-03 10:50:00,50.2,43.6,29.97,West,265,0.0,0.0,78,0.00,,---,0.00,VWS V14.01,2013-12-03 15:50:00,
2013-12-03 10:54:00,50.5,43.6,29.97,West,265,0.0,1.0,77,0.00,,---,0.00,VWS V14.01,2013-12-03 15:54:00,
2013-12-03 10:55:00,50.5,43.6,29.97,West,265,0.0,1.0,77,0.00,,---,0.00,VWS V14.01,2013-12-03 15:55:00,
2013-12-03 10:59:00,50.8,43.2,29.97,West,265,0.0,1.0,75,0.00,,---,0.00,VWS V14.01,2013-12-03 15:59:00,
2013-12-03 11:00:00,50.8,43.2,29.97,West,265,0.0,1.0,75,0.00,,---,0.00,VWS V14.01,2013-12-03 16:00:00,
2013-12-03 11:04:00,51.1,43.5,29.97,West,265,0.0,0.0,75,0.00,,---,0.00,VWS V14.01,2013-12-03 16:04:00,
2013-12-03 11:05:00,51.1,43.5,29.97,West,265,0.0,0.0,75,0.00,,---,0.00,VWS V14.01,2013-12-03 16:05:00,
2013-12-03 11:10:00,51.4,43.4,29.97,West,265,0.0,1.0,74,0.00,,---,0.00,VWS V14.01,2013-12-03 16:10:00,
2013-12-03 11:14:00,51.8,43.8,29.96,West,265,1.0,2.0,74,0.00,,---,0.00,VWS V14.01,2013-12-03 16:14:00,
2013-12-03 11:15:00,51.8,43.8,29.96,West,265,1.0,2.0,74,0.00,,---,0.00,VWS V14.01,2013-12-03 16:15:00,
2013-12-03 11:19:00,52.0,43.6,29.96,West,265,0.0,3.0,73,0.00,,---,0.00,VWS V14.01,2013-12-03 16:19:00,
2013-12-03 11:20:00,52.0,43.6,29.96,West,265,0.0,3.0,73,0.00,,---,0.00,VWS V14.01,2013-12-03 16:20:00,
2013-12-03 11:24:00,52.2,43.8,29.96,West,265,0.0,3.0,73,0.00,,---,0.00,VWS V14.01,2013-12-03 16:24:00,
2013-12-03 11:25:00,52.2,43.8,29.96,West,265,0.0,3.0,73,0.00,,---,0.00,VWS V14.01,2013-12-03 16:25:00,
2013-12-03 11:29:00,52.7,43.9,29.96,West,265,0.0,2.0,72,0.00,,---,0.00,VWS V14.01,2013-12-03 16:29:00,
2013-12-03 11:30:00,52.7,43.9,29.96,West,265,0.0,2.0,72,0.00,,---,0.00,VWS V14.01,2013-12-03 16:30:00,
2013-12-03 11:34:00,53.1,44.0,29.95,West,265,0.0,3.0,71,0.00,,---,0.00,VWS V14.01,2013-12-03 16:34:00,
2013-12-03 11:35:00,53.1,44.0,29.95,West,265,0.0,3.0,71,0.00,,---,0.00,VWS V14.01,2013-12-03 16:35:00,
2013-12-03 11:39:00,53.5,44.3,29.96,West,265,1.0,2.0,71,0.00,,---,0.00,VWS V14.01,2013-12-03 16:39:00,
2013-12-03 11:40:00,53.5,44.3,29.96,West,265,1.0,2.0,71,0.00,,---,0.00,VWS V14.01,2013-12-03 16:40:00,
2013-12-03 11:44:00,54.0,44.8,29.95,West,265,1.0,2.0,71,0.00,,---,0.00,VWS V14.01,2013-12-03 16:44:00,
2013-12-03 11:45:00,54.0,44.8,29.95,West,265,1.0,2.0,71,0.00,,---,0.00,VWS V14.01,2013-12-03 16:45:00,
2013-12-03 11:50:00,54.3,45.1,29.95,West,265,1.0,3.0,71,0.00,,---,0.00,VWS V14.01,2013-12-03 16:50:00,
2013-12-03 11:54:00,54.4,45.2,29.95,West,265,0.0,3.0,71,0.00,,---,0.00,VWS V14.01,2013-12-03 16:54:00,
2013-12-03 11:55:00,54.4,45.2,29.95,West,265,0.0,3.0,71,0.00,,---,0.00,VWS V14.01,2013-12-03 16:55:00,
2013-12-03 11:59:00,54.7,45.5,29.95,West,265,0.0,2.0,71,0.00,,---,0.00,VWS V14.01,2013-12-03 16:59:00,
2013-12-03 12:00:00,54.7,45.5,29.95,West,265,0.0,2.0,71,0.00,,---,0.00,VWS V14.01,2013-12-03 17:00:00,
2013-12-03 12:04:00,55.0,45.8,29.95,West,265,0.0,1.0,71,0.00,,---,0.00,VWS V14.01,2013-12-03 17:04:00,
2013-12-03 12:05:00,55.0,45.8,29.95,West,265,0.0,1.0,71,0.00,,---,0.00,VWS V14.01,2013-12-03 17:05:00,
2013-12-03 12:09:00,55.5,46.6,29.95,West,265,0.0,1.0,72,0.00,,---,0.00,VWS V14.01,2013-12-03 17:09:00,
2013-12-03 12:10:00,55.5,46.6,29.95,West,265,0.0,1.0,72,0.00,,---,0.00,VWS V14.01,2013-12-03 17:10:00,
2013-12-03 12:15:00,56.2,46.9,29.95,WSW,239,1.0,3.0,71,0.00,,---,0.00,VWS V14.01,2013-12-03 17:15:00,
2013-12-03 12:19:00,56.4,46.8,29.95,WSW,239,1.0,2.0,70,0.00,,---,0.00,VWS V14.01,2013-12-03 17:19:00,
2013-12-03 12:20:00,56.4,46.8,29.95,WSW,239,1.0,2.0,70,0.00,,---,0.00,VWS V14.01,2013-12-03 17:20:00,
2013-12-03 12:24:00,56.4,47.1,29.94,NNE,22,1.0,3.0,71,0.00,,---,0.00,VWS V14.01,2013-12-03 17:24:00,
2013-12-03 12:25:00,56.4,47.1,29.94,NNE,22,1.0,3.0,71,0.00,,---,0.00,VWS V14.01,2013-12-03 17:25:00,
2013-12-03 12:29:00,56.9,47.6,29.94,NW,304,0.0,4.0,71,0.00,,---,0.00,VWS V14.01,2013-12-03 17:29:00,
2013-12-03 12:30:00,56.9,47.6,29.94,NW,304,0.0,4.0,71,0.00,,---,0.00,VWS V14.01,2013-12-03 17:30:00,
2013-12-03 12:34:00,57.7,48.0,29.94,NW,304,0.0,2.0,70,0.00,,---,0.00,VWS V14.01,2013-12-03 17:34:00,
2013-12-03 12:35:00,57.7,48.0,29.94,NW,304,0.0,2.0,70,0.00,,---,0.00,VWS V14.01,2013-12-03 17:35:00,
2013-12-03 12:39:00,58.6,48.5,29.94,East,89,0.0,2.0,69,0.00,,---,0.00,VWS V14.01,2013-12-03 17:39:00,
2013-12-03 12:40:00,58.6,48.5,29.94,East,89,0.0,2.0,69,0.00,,---,0.00,VWS V14.01,2013-12-03 17:40:00,
2013-12-03 12:44:00,59.0,48.5,29.93,WSW,254,1.0,4.0,68,0.00,,---,0.00,VWS V14.01,2013-12-03 17:44:00,
2013-12-03 12:45:00,59.0,48.5,29.93,WSW,254,1.0,4.0,68,0.00,,---,0.00,VWS V14.01,2013-12-03 17:45:00,
2013-12-03 12:49:00,59.1,48.6,29.93,WSW,254,0.0,1.0,68,0.00,,---,0.00,VWS V14.01,2013-12-03 17:49:00,
2013-12-03 12:50:00,59.1,48.6,29.93,WSW,254,0.0,1.0,68,0.00,,---,0.00,VWS V14.01,2013-12-03 17:50:00,
2013-12-03 12:55:00,59.4,48.8,29.93,ESE,115,1.0,6.0,68,0.00,,---,0.00,VWS V14.01,2013-12-03 17:55:00,
2013-12-03 12:59:00,59.3,48.4,29.92,SSW,198,1.0,5.0,67,0.00,,---,0.00,VWS V14.01,2013-12-03 17:59:00,
2013-12-03 13:00:00,59.3,48.4,29.92,SSW,198,1.0,5.0,67,0.00,,---,0.00,VWS V14.01,2013-12-03 18:00:00,
2013-12-03 13:05:00,58.9,48.4,29.92,SSW,194,2.0,4.0,68,0.00,,---,0.00,VWS V14.01,2013-12-03 18:05:00,
2013-12-03 13:09:00,58.7,48.2,29.92,South,184,3.0,5.0,68,0.00,,---,0.00,VWS V14.01,2013-12-03 18:09:00,
2013-12-03 13:10:00,58.7,48.2,29.92,South,184,3.0,5.0,68,0.00,,---,0.00,VWS V14.01,2013-12-03 18:10:00,
2013-12-03 13:14:00,58.4,48.7,29.92,SSW,195,0.0,6.0,70,0.00,,---,0.00,VWS V14.01,2013-12-03 18:14:00,
2013-12-03 13:15:00,58.4,48.7,29.92,SSW,195,0.0,6.0,70,0.00,,---,0.00,VWS V14.01,2013-12-03 18:15:00,
2013-12-03 13:19:00,58.4,49.0,29.92,SSW,209,2.0,6.0,71,0.00,,---,0.00,VWS V14.01,2013-12-03 18:19:00,
2013-12-03 13:20:00,58.4,49.0,29.92,SSW,209,2.0,6.0,71,0.00,,---,0.00,VWS V14.01,2013-12-03 18:20:00,
2013-12-03 13:24:00,58.2,48.8,29.92,SW,218,0.0,6.0,71,0.00,,---,0.00,VWS V14.01,2013-12-03 18:24:00,
2013-12-03 13:25:00,58.2,48.8,29.92,SW,218,0.0,6.0,71,0.00,,---,0.00,VWS V14.01,2013-12-03 18:25:00,
2013-12-03 13:30:00,58.1,48.8,29.92,SSE,153,1.0,7.0,71,0.00,,---,0.00,VWS V14.01,2013-12-03 18:30:00,
2013-12-03 13:34:00,58.0,48.7,29.92,SW,216,1.0,8.0,71,0.00,,---,0.00,VWS V14.01,2013-12-03 18:34:00,
2013-12-03 13:35:00,58.0,48.7,29.92,SW,216,1.0,8.0,71,0.00,,---,0.00,VWS V14.01,2013-12-03 18:35:00,
2013-12-03 13:39:00,58.0,48.7,29.92,SSW,211,1.0,5.0,71,0.00,,---,0.00,VWS V14.01,2013-12-03 18:39:00,
2013-12-03 13:40:00,58.0,48.7,29.92,SSW,211,1.0,5.0,71,0.00,,---,0.00,VWS V14.01,2013-12-03 18:40:00,
2013-12-03 13:44:00,58.1,48.8,29.92,SW,216,2.0,4.0,71,0.00,,---,0.00,VWS V14.01,2013-12-03 18:44:00,
2013-12-03 13:45:00,58.1,48.8,29.92,SW,216,2.0,4.0,71,0.00,,---,0.00,VWS V14.01,2013-12-03 18:45:00,
2013-12-03 13:49:00,57.9,48.6,29.91,South,184,8.0,8.0,71,0.00,,---,0.00,VWS V14.01,2013-12-03 18:49:00,
2013-12-03 13:50:00,57.9,48.6,29.91,South,184,8.0,8.0,71,0.00,,---,0.00,VWS V14.01,2013-12-03 18:50:00,
2013-12-03 13:54:00,58.0,49.0,29.91,South,190,0.0,8.0,72,0.00,,---,0.00,VWS V14.01,2013-12-03 18:54:00,
2013-12-03 13:55:00,58.0,49.0,29.91,South,190,0.0,8.0,72,0.00,,---,0.00,VWS V14.01,2013-12-03 18:55:00,
2013-12-03 14:00:00,58.2,48.8,29.91,South,190,0.0,2.0,71,0.00,,---,0.00,VWS V14.01,2013-12-03 19:00:00,
2013-12-03 14:04:00,58.5,48.8,29.91,SE,146,1.0,3.0,70,0.00,,---,0.00,VWS V14.01,2013-12-03 19:04:00,
2013-12-03 14:05:00,58.5,48.8,29.91,SE,146,1.0,3.0,70,0.00,,---,0.00,VWS V14.01,2013-12-03 19:05:00,
2013-12-03 14:09:00,58.4,49.0,29.91,South,190,1.0,5.0,71,0.00,,---,0.00,VWS V14.01,2013-12-03 19:09:00,
2013-12-03 14:10:00,58.4,49.0,29.91,South,190,1.0,5.0,71,0.00,,---,0.00,VWS V14.01,2013-12-03 19:10:00,
2013-12-03 14:14:00,58.5,48.8,29.92,SSW,195,1.0,3.0,70,0.00,,---,0.00,VWS V14.01,2013-12-03 19:14:00,
2013-12-03 14:15:00,58.5,48.8,29.92,SSW,195,1.0,3.0,70,0.00,,---,0.00,VWS V14.01,2013-12-03 19:15:00,
2013-12-03 14:19:00,58.5,48.8,29.92,South,180,2.0,5.0,70,0.00,,---,0.00,VWS V14.01,2013-12-03 19:19:00,
2013-12-03 14:20:00,58.5,48.8,29.92,South,180,2.0,5.0,70,0.00,,---,0.00,VWS V14.01,2013-12-03 19:20:00,
2013-12-03 14:25:00,58.4,48.7,29.92,SSW,194,2.0,4.0,70,0.00,,---,0.00,VWS V14.01,2013-12-03 19:25:00,
2013-12-03 14:29:00,58.4,49.0,29.92,SSW,205,0.0,5.0,71,0.00,,---,0.00,VWS V14.01,2013-12-03 19:29:00,
2013-12-03 14:30:00,58.4,49.0,29.92,SSW,205,0.0,5.0,71,0.00,,---,0.00,VWS V14.01,2013-12-03 19:30:00,
2013-12-03 14:34:00,58.4,49.0,29.92,South,182,0.0,2.0,71,0.00,,---,0.00,VWS V14.01,2013-12-03 19:34:00,
2013-12-03 14:35:00,58.4,49.0,29.92,South,182,0.0,2.0,71,0.00,,---,0.00,VWS V14.01,2013-12-03 19:35:00,
2013-12-03 14:39:00,58.4,49.0,29.92,South,182,1.0,2.0,71,0.00,,---,0.00,VWS V14.01,2013-12-03 19:39:00,
2013-12-03 14:40:00,58.4,49.0,29.92,South,182,1.0,2.0,71,0.00,,---,0.00,VWS V14.01,2013-12-03 19:40:00,
2013-12-03 14:45:00,58.4,49.0,29.92,South,182,0.0,3.0,71,0.00,,---,0.00,VWS V14.01,2013-12-03 19:45:00,
2013-12-03 14:49:00,58.5,49.1,29.92,South,182,1.0,1.0,71,0.00,,---,0.00,VWS V14.01,2013-12-03 19:49:00,
2013-12-03 14:50:00,58.5,49.1,29.92,South,182,1.0,1.0,71,0.00,,---,0.00,VWS V14.01,2013-12-03 19:50:00,
2013-12-03 14:54:00,58.5,49.1,29.92,South,182,2.0,2.0,71,0.00,,---,0.00,VWS V14.01,2013-12-03 19:54:00,
2013-12-03 14:55:00,58.5,49.1,29.92,South,182,2.0,2.0,71,0.00,,---,0.00,VWS V14.01,2013-12-03 19:55:00,
2013-12-03 14:59:00,58.5,49.1,29.92,South,182,0.0,3.0,71,0.00,,---,0.00,VWS V14.01,2013-12-03 19:59:00,
2013-12-03 15:00:00,58.5,49.1,29.92,South,182,0.0,3.0,71,0.00,,---,0.00,VWS V14.01,2013-12-03 20:00:00,
2013-12-03 15:04:00,58.4,49.0,29.92,South,182,0.0,4.0,71,0.00,,---,0.00,VWS V14.01,2013-12-03 20:04:00,
2013-12-03 15:05:00,58.4,49.0,29.92,South,182,0.0,4.0,71,0.00,,---,0.00,VWS V14.01,2013-12-03 20:05:00,
2013-12-03 15:09:00,58.4,49.4,29.93,South,177,0.0,2.0,72,0.00,,---,0.00,VWS V14.01,2013-12-03 20:09:00,
2013-12-03 15:10:00,58.4,49.4,29.93,South,177,0.0,2.0,72,0.00,,---,0.00,VWS V14.01,2013-12-03 20:10:00,
2013-12-03 15:14:00,58.5,49.5,29.93,South,177,0.0,2.0,72,0.00,,---,0.00,VWS V14.01,2013-12-03 20:14:00,
2013-12-03 15:15:00,58.5,49.5,29.93,South,177,0.0,2.0,72,0.00,,---,0.00,VWS V14.01,2013-12-03 20:15:00,
2013-12-03 15:19:00,58.5,49.5,29.93,South,179,0.0,2.0,72,0.00,,---,0.00,VWS V14.01,2013-12-03 20:19:00,
2013-12-03 15:20:00,58.5,49.5,29.93,South,179,0.0,2.0,72,0.00,,---,0.00,VWS V14.01,2013-12-03 20:20:00,
2013-12-03 15:24:00,58.5,49.5,29.93,South,182,0.0,2.0,72,0.00,,---,0.00,VWS V14.01,2013-12-03 20:24:00,
2013-12-03 15:25:00,58.5,49.5,29.93,South,182,0.0,2.0,72,0.00,,---,0.00,VWS V14.01,2013-12-03 20:25:00,
2013-12-03 15:29:00,58.5,49.5,29.93,South,182,0.0,1.0,72,0.00,,---,0.00,VWS V14.01,2013-12-03 20:29:00,
2013-12-03 15:30:00,58.5,49.5,29.93,South,182,0.0,1.0,72,0.00,,---,0.00,VWS V14.01,2013-12-03 20:30:00,
2013-12-03 15:34:00,58.5,49.9,29.93,South,182,0.0,1.0,73,0.00,,---,0.00,VWS V14.01,2013-12-03 20:34:00,
2013-12-03 15:35:00,58.5,49.9,29.93,South,182,0.0,1.0,73,0.00,,---,0.00,VWS V14.01,2013-12-03 20:35:00,
2013-12-03 15:39:00,58.5,49.9,29.93,SSW,193,0.0,3.0,73,0.00,,---,0.00,VWS V14.01,2013-12-03 20:39:00,
2013-12-03 15:40:00,58.5,49.9,29.93,SSW,193,0.0,3.0,73,0.00,,---,0.00,VWS V14.01,2013-12-03 20:40:00,
2013-12-03 15:44:00,58.5,50.2,29.93,SSW,193,0.0,2.0,74,0.00,,---,0.00,VWS V14.01,2013-12-03 20:44:00,
2013-12-03 15:45:00,58.5,50.2,29.93,SSW,193,0.0,2.0,74,0.00,,---,0.00,VWS V14.01,2013-12-03 20:45:00,
2013-12-03 15:49:00,58.5,50.6,29.93,South,175,0.0,2.0,75,0.00,,---,0.00,VWS V14.01,2013-12-03 20:49:00,
2013-12-03 15:50:00,58.5,50.6,29.93,South,175,0.0,2.0,75,0.00,,---,0.00,VWS V14.01,2013-12-03 20:50:00,
2013-12-03 15:54:00,58.5,50.6,29.93,South,175,0.0,1.0,75,0.00,,---,0.00,VWS V14.01,2013-12-03 20:54:00,
2013-12-03 15:55:00,58.5,50.6,29.93,South,175,0.0,1.0,75,0.00,,---,0.00,VWS V14.01,2013-12-03 20:55:00,
2013-12-03 15:59:00,58.4,50.5,29.93,South,175,0.0,1.0,75,0.00,,---,0.00,VWS V14.01,2013-12-03 20:59:00,
2013-12-03 16:00:00,58.4,50.5,29.93,South,175,0.0,1.0,75,0.00,,---,0.00,VWS V14.01,2013-12-03 21:00:00,
2013-12-03 16:05:00,58.3,50.8,29.93,South,175,0.0,2.0,76,0.00,,---,0.00,VWS V14.01,2013-12-03 21:05:00,
2013-12-03 16:09:00,58.3,50.8,29.93,South,175,0.0,0.0,76,0.00,,---,0.00,VWS V14.01,2013-12-03 21:09:00,
2013-12-03 16:10:00,58.3,50.8,29.93,South,175,0.0,0.0,76,0.00,,---,0.00,VWS V14.01,2013-12-03 21:10:00,
2013-12-03 16:14:00,58.3,50.8,29.93,South,175,0.0,0.0,76,0.00,,---,0.00,VWS V14.01,2013-12-03 21:14:00,
2013-12-03 16:15:00,58.3,50.8,29.93,South,175,0.0,0.0,76,0.00,,---,0.00,VWS V14.01,2013-12-03 21:15:00,
2013-12-03 16:19:00,58.2,50.7,29.93,South,175,0.0,0.0,76,0.00,,---,0.00,VWS V14.01,2013-12-03 21:19:00,
2013-12-03 16:20:00,58.2,50.7,29.93,South,175,0.0,0.0,76,0.00,,---,0.00,VWS V14.01,2013-12-03 21:20:00,
2013-12-03 16:24:00,58.1,50.9,29.94,South,175,0.0,0.0,77,0.00,,---,0.00,VWS V14.01,2013-12-03 21:24:00,
2013-12-03 16:25:00,58.1,50.9,29.94,South,175,0.0,0.0,77,0.00,,---,0.00,VWS V14.01,2013-12-03 21:25:00,
2013-12-03 16:30:00,58.1,50.9,29.94,South,175,0.0,0.0,77,0.00,,---,0.00,VWS V14.01,2013-12-03 21:30:00,
2013-12-03 16:34:00,57.9,50.7,29.94,South,175,0.0,0.0,77,0.00,,---,0.00,VWS V14.01,2013-12-03 21:34:00,
2013-12-03 16:35:00,57.9,50.7,29.94,South,175,0.0,0.0,77,0.00,,---,0.00,VWS V14.01,2013-12-03 21:35:00,
2013-12-03 16:39:00,57.8,50.7,29.94,South,175,0.0,0.0,77,0.00,,---,0.00,VWS V14.01,2013-12-03 21:39:00,
2013-12-03 16:40:00,57.8,50.7,29.94,South,175,0.0,0.0,77,0.00,,---,0.00,VWS V14.01,2013-12-03 21:40:00,
2013-12-03 16:44:00,57.7,50.5,29.94,South,175,0.0,0.0,77,0.00,,---,0.00,VWS V14.01,2013-12-03 21:44:00,
2013-12-03 16:45:00,57.7,50.5,29.94,South,175,0.0,0.0,77,0.00,,---,0.00,VWS V14.01,2013-12-03 21:45:00,
2013-12-03 16:50:00,57.5,50.4,29.94,South,175,0.0,0.0,77,0.00,,---,0.00,VWS V14.01,2013-12-03 21:50:00,
2013-12-03 16:54:00,57.3,50.5,29.94,South,175,0.0,0.0,78,0.00,,---,0.00,VWS V14.01,2013-12-03 21:54:00,
2013-12-03 16:55:00,57.3,50.5,29.94,South,175,0.0,0.0,78,0.00,,---,0.00,VWS V14.01,2013-12-03 21:55:00,
2013-12-03 16:59:00,57.2,50.4,29.94,South,175,0.0,0.0,78,0.00,,---,0.00,VWS V14.01,2013-12-03 21:59:00,
2013-12-03 17:00:00,57.2,50.4,29.94,South,175,0.0,0.0,78,0.00,,---,0.00,VWS V14.01,2013-12-03 22:00:00,
2013-12-03 17:04:00,57.1,50.3,29.94,South,175,0.0,0.0,78,0.00,,---,0.00,VWS V14.01,2013-12-03 22:04:00,
2013-12-03 17:05:00,57.1,50.3,29.94,South,175,0.0,0.0,78,0.00,,---,0.00,VWS V14.01,2013-12-03 22:05:00,
2013-12-03 17:09:00,56.9,50.1,29.94,South,175,0.0,0.0,78,0.00,,---,0.00,VWS V14.01,2013-12-03 22:09:00,
2013-12-03 17:10:00,56.9,50.1,29.94,South,175,0.0,0.0,78,0.00,,---,0.00,VWS V14.01,2013-12-03 22:10:00,
2013-12-03 17:14:00,56.8,50.4,29.94,South,175,0.0,0.0,79,0.00,,---,0.00,VWS V14.01,2013-12-03 22:14:00,
2013-12-03 17:15:00,56.8,50.4,29.94,South,175,0.0,0.0,79,0.00,,---,0.00,VWS V14.01,2013-12-03 22:15:00,
2013-12-03 17:19:00,56.6,50.2,29.95,South,175,0.0,0.0,79,0.00,,---,0.00,VWS V14.01,2013-12-03 22:19:00,
2013-12-03 17:20:00,56.6,50.2,29.95,South,175,0.0,0.0,79,0.00,,---,0.00,VWS V14.01,2013-12-03 22:20:00,
2013-12-03 17:24:00,56.4,50.0,29.95,South,175,0.0,1.0,79,0.00,,---,0.00,VWS V14.01,2013-12-03 22:24:00,
2013-12-03 17:25:00,56.4,50.0,29.95,South,175,0.0,1.0,79,0.00,,---,0.00,VWS V14.01,2013-12-03 22:25:00,
2013-12-03 17:29:00,56.3,49.9,29.95,South,175,0.0,0.0,79,0.00,,---,0.00,VWS V14.01,2013-12-03 22:29:00,
2013-12-03 17:30:00,56.3,49.9,29.95,South,175,0.0,0.0,79,0.00,,---,0.00,VWS V14.01,2013-12-03 22:30:00,
2013-12-03 17:34:00,56.1,50.0,29.95,South,175,0.0,0.0,80,0.00,,---,0.00,VWS V14.01,2013-12-03 22:34:00,
2013-12-03 17:35:00,56.1,50.0,29.95,South,175,0.0,0.0,80,0.00,,---,0.00,VWS V14.01,2013-12-03 22:35:00,
2013-12-03 17:39:00,55.9,49.8,29.95,South,175,0.0,0.0,80,0.00,,---,0.00,VWS V14.01,2013-12-03 22:39:00,
2013-12-03 17:40:00,55.9,49.8,29.95,South,175,0.0,0.0,80,0.00,,---,0.00,VWS V14.01,2013-12-03 22:40:00,
2013-12-03 17:45:00,55.8,49.7,29.95,South,175,0.0,0.0,80,0.00,,---,0.00,VWS V14.01,2013-12-03 22:45:00,
2013-12-03 17:49:00,55.7,50.0,29.95,South,175,0.0,0.0,81,0.00,,---,0.00,VWS V14.01,2013-12-03 22:49:00,
2013-12-03 17:50:00,55.7,50.0,29.95,South,175,0.0,0.0,81,0.00,,---,0.00,VWS V14.01,2013-12-03 22:50:00,
2013-12-03 17:54:00,55.5,49.8,29.95,South,175,0.0,0.0,81,0.00,,---,0.00,VWS V14.01,2013-12-03 22:54:00,
2013-12-03 17:55:00,55.5,49.8,29.95,South,175,0.0,0.0,81,0.00,,---,0.00,VWS V14.01,2013-12-03 22:55:00,
2013-12-03 17:59:00,55.4,49.7,29.95,South,175,0.0,0.0,81,0.00,,---,0.00,VWS V14.01,2013-12-03 22:59:00,
2013-12-03 18:00:00,55.4,49.7,29.95,South,175,0.0,0.0,81,0.00,,---,0.00,VWS V14.01,2013-12-03 23:00:00,
2013-12-03 18:04:00,55.2,49.5,29.96,South,175,0.0,0.0,81,0.00,,---,0.00,VWS V14.01,2013-12-03 23:04:00,
2013-12-03 18:05:00,55.2,49.5,29.96,South,175,0.0,0.0,81,0.00,,---,0.00,VWS V14.01,2013-12-03 23:05:00,
2013-12-03 18:10:00,55.2,49.8,29.95,South,175,0.0,0.0,82,0.00,,---,0.00,VWS V14.01,2013-12-03 23:10:00,
2013-12-03 18:14:00,55.0,49.6,29.95,South,175,0.0,0.0,82,0.00,,---,0.00,VWS V14.01,2013-12-03 23:14:00,
2013-12-03 18:15:00,55.0,49.6,29.95,South,175,0.0,0.0,82,0.00,,---,0.00,VWS V14.01,2013-12-03 23:15:00,
2013-12-03 18:20:00,54.9,49.5,29.95,South,175,0.0,1.0,82,0.00,,---,0.00,VWS V14.01,2013-12-03 23:20:00,
2013-12-03 18:24:00,54.9,49.5,29.95,South,175,0.0,0.0,82,0.00,,---,0.00,VWS V14.01,2013-12-03 23:24:00,
2013-12-03 18:25:00,54.9,49.5,29.95,South,175,0.0,0.0,82,0.00,,---,0.00,VWS V14.01,2013-12-03 23:25:00,
2013-12-03 18:30:00,54.7,49.3,29.95,South,175,0.0,0.0,82,0.00,,---,0.00,VWS V14.01,2013-12-03 23:30:00,
2013-12-03 18:34:00,54.6,49.5,29.96,South,175,0.0,0.0,83,0.00,,---,0.00,VWS V14.01,2013-12-03 23:34:00,
2013-12-03 18:35:00,54.6,49.5,29.96,South,175,0.0,0.0,83,0.00,,---,0.00,VWS V14.01,2013-12-03 23:35:00,
2013-12-03 18:39:00,54.4,49.3,29.96,South,175,0.0,0.0,83,0.00,,---,0.00,VWS V14.01,2013-12-03 23:39:00,
2013-12-03 18:40:00,54.4,49.3,29.96,South,175,0.0,0.0,83,0.00,,---,0.00,VWS V14.01,2013-12-03 23:40:00,
2013-12-03 18:44:00,54.2,49.2,29.96,South,175,0.0,0.0,83,0.00,,---,0.00,VWS V14.01,2013-12-03 23:44:00,
2013-12-03 18:45:00,54.2,49.2,29.96,South,175,0.0,0.0,83,0.00,,---,0.00,VWS V14.01,2013-12-03 23:45:00,
2013-12-03 18:49:00,54.1,49.4,29.96,South,175,0.0,0.0,84,0.00,,---,0.00,VWS V14.01,2013-12-03 23:49:00,
2013-12-03 18:50:00,54.1,49.4,29.96,South,175,0.0,0.0,84,0.00,,---,0.00,VWS V14.01,2013-12-03 23:50:00,
2013-12-03 18:54:00,54.0,49.3,29.96,South,175,0.0,0.0,84,0.00,,---,0.00,VWS V14.01,2013-12-03 23:54:00,
2013-12-03 18:55:00,54.0,49.3,29.96,South,175,0.0,0.0,84,0.00,,---,0.00,VWS V14.01,2013-12-03 23:55:00,
2013-12-03 18:59:00,53.8,49.1,29.95,South,175,0.0,0.0,84,0.00,,---,0.00,VWS V14.01,2013-12-03 23:59:00,
2013-12-03 19:00:00,53.8,49.1,29.95,South,175,0.0,0.0,84,0.00,,---,0.00,VWS V14.01,2013-12-04 00:00:00,
2013-12-03 19:04:00,53.7,49.0,29.96,South,175,0.0,0.0,84,0.00,,---,0.00,VWS V14.01,2013-12-04 00:04:00,
2013-12-03 19:05:00,53.7,49.0,29.96,South,175,0.0,0.0,84,0.00,,---,0.00,VWS V14.01,2013-12-04 00:05:00,
2013-12-03 19:09:00,53.6,49.2,29.96,South,175,0.0,0.0,85,0.00,,---,0.00,VWS V14.01,2013-12-04 00:09:00,
2013-12-03 19:10:00,53.6,49.2,29.96,South,175,0.0,0.0,85,0.00,,---,0.00,VWS V14.01,2013-12-04 00:10:00,
2013-12-03 19:14:00,53.4,49.0,29.97,South,175,0.0,0.0,85,0.00,,---,0.00,VWS V14.01,2013-12-04 00:14:00,
2013-12-03 19:15:00,53.4,49.0,29.97,South,175,0.0,0.0,85,0.00,,---,0.00,VWS V14.01,2013-12-04 00:15:00,
2013-12-03 19:19:00,53.3,48.9,29.97,South,175,0.0,0.0,85,0.00,,---,0.00,VWS V14.01,2013-12-04 00:19:00,
2013-12-03 19:20:00,53.3,48.9,29.97,South,175,0.0,0.0,85,0.00,,---,0.00,VWS V14.01,2013-12-04 00:20:00,
2013-12-03 19:24:00,53.3,49.2,29.97,South,175,0.0,0.0,86,0.00,,---,0.00,VWS V14.01,2013-12-04 00:24:00,
2013-12-03 19:25:00,53.3,49.2,29.97,South,175,0.0,0.0,86,0.00,,---,0.00,VWS V14.01,2013-12-04 00:25:00,
2013-12-03 19:29:00,53.2,49.1,29.97,South,175,0.0,0.0,86,0.00,,---,0.00,VWS V14.01,2013-12-04 00:29:00,
2013-12-03 19:30:00,53.2,49.1,29.97,South,175,0.0,0.0,86,0.00,,---,0.00,VWS V14.01,2013-12-04 00:30:00,
2013-12-03 19:34:00,53.2,49.1,29.97,South,175,0.0,0.0,86,0.00,,---,0.00,VWS V14.01,2013-12-04 00:34:00,
2013-12-03 19:35:00,53.2,49.1,29.97,South,175,0.0,0.0,86,0.00,,---,0.00,VWS V14.01,2013-12-04 00:35:00,
2013-12-03 19:39:00,53.1,49.0,29.97,South,175,0.0,0.0,86,0.00,,---,0.00,VWS V14.01,2013-12-04 00:39:00,
2013-12-03 19:40:00,53.1,49.0,29.97,South,175,0.0,0.0,86,0.00,,---,0.00,VWS V14.01,2013-12-04 00:40:00,
2013-12-03 19:44:00,53.0,48.9,29.97,South,175,0.0,0.0,86,0.00,,---,0.00,VWS V14.01,2013-12-04 00:44:00,
2013-12-03 19:45:00,53.0,48.9,29.97,South,175,0.0,0.0,86,0.00,,---,0.00,VWS V14.01,2013-12-04 00:45:00,
2013-12-03 19:49:00,52.9,48.8,29.97,South,175,0.0,0.0,86,0.00,,---,0.00,VWS V14.01,2013-12-04 00:49:00,
2013-12-03 19:50:00,52.9,48.8,29.97,South,175,0.0,0.0,86,0.00,,---,0.00,VWS V14.01,2013-12-04 00:50:00,
2013-12-03 19:54:00,52.7,48.6,29.97,South,175,0.0,0.0,86,0.00,,---,0.00,VWS V14.01,2013-12-04 00:54:00,
2013-12-03 19:55:00,52.7,48.6,29.97,South,175,0.0,0.0,86,0.00,,---,0.00,VWS V14.01,2013-12-04 00:55:00,
2013-12-03 20:00:00,52.6,48.8,29.97,South,175,0.0,0.0,87,0.00,,---,0.00,VWS V14.01,2013-12-04 01:00:00,
2013-12-03 20:04:00,52.5,48.8,29.97,South,175,0.0,0.0,87,0.00,,---,0.00,VWS V14.01,2013-12-04 01:04:00,
2013-12-03 20:05:00,52.5,48.8,29.97,South,175,0.0,0.0,87,0.00,,---,0.00,VWS V14.01,2013-12-04 01:05:00,
2013-12-03 20:10:00,52.4,49.0,29.97,South,175,0.0,0.0,88,0.00,,---,0.00,VWS V14.01,2013-12-04 01:10:00,
2013-12-03 20:14:00,52.3,48.9,29.97,South,175,0.0,0.0,88,0.00,,---,0.00,VWS V14.01,2013-12-04 01:14:00,
2013-12-03 20:15:00,52.3,48.9,29.97,South,175,0.0,0.0,88,0.00,,---,0.00,VWS V14.01,2013-12-04 01:15:00,
2013-12-03 20:19:00,52.1,48.7,29.97,South,175,0.0,0.0,88,0.00,,---,0.00,VWS V14.01,2013-12-04 01:19:00,
2013-12-03 20:20:00,52.1,48.7,29.97,South,175,0.0,0.0,88,0.00,,---,0.00,VWS V14.01,2013-12-04 01:20:00,
2013-12-03 20:24:00,52.0,48.6,29.97,South,175,0.0,1.0,88,0.00,,---,0.00,VWS V14.01,2013-12-04 01:24:00,
2013-12-03 20:25:00,52.0,48.6,29.97,South,175,0.0,1.0,88,0.00,,---,0.00,VWS V14.01,2013-12-04 01:25:00,
2013-12-03 20:29:00,52.0,48.6,29.97,SW,225,0.0,4.0,88,0.00,,---,0.00,VWS V14.01,2013-12-04 01:29:00,
2013-12-03 20:30:00,52.0,48.6,29.97,SW,225,0.0,4.0,88,0.00,,---,0.00,VWS V14.01,2013-12-04 01:30:00,
2013-12-03 20:34:00,52.0,48.6,29.97,SW,227,0.0,2.0,88,0.00,,---,0.00,VWS V14.01,2013-12-04 01:34:00,
2013-12-03 20:35:00,52.0,48.6,29.97,SW,227,0.0,2.0,88,0.00,,---,0.00,VWS V14.01,2013-12-04 01:35:00,
2013-12-03 20:40:00,51.9,48.5,29.97,SW,227,0.0,1.0,88,0.00,,---,0.00,VWS V14.01,2013-12-04 01:40:00,
2013-12-03 20:44:00,52.1,48.7,29.97,SW,226,0.0,2.0,88,0.00,,---,0.00,VWS V14.01,2013-12-04 01:44:00,
2013-12-03 20:45:00,52.1,48.7,29.97,SW,226,0.0,2.0,88,0.00,,---,0.00,VWS V14.01,2013-12-04 01:45:00,
2013-12-03 20:49:00,52.2,48.8,29.97,SW,226,0.0,2.0,88,0.00,,---,0.00,VWS V14.01,2013-12-04 01:49:00,
2013-12-03 20:50:00,52.2,48.8,29.97,SW,226,0.0,2.0,88,0.00,,---,0.00,VWS V14.01,2013-12-04 01:50:00,
2013-12-03 20:54:00,52.2,48.5,29.97,SW,226,0.0,2.0,87,0.00,,---,0.00,VWS V14.01,2013-12-04 01:54:00,
2013-12-03 20:55:00,52.2,48.5,29.97,SW,226,0.0,2.0,87,0.00,,---,0.00,VWS V14.01,2013-12-04 01:55:00,
2013-12-03 20:59:00,52.3,48.2,29.97,SW,226,0.0,1.0,86,0.00,,---,0.00,VWS V14.01,2013-12-04 01:59:00,
2013-12-03 21:00:00,52.3,48.2,29.97,SW,226,0.0,1.0,86,0.00,,---,0.00,VWS V14.01,2013-12-04 02:00:00,
2013-12-03 21:04:00,52.3,48.2,29.97,SW,226,0.0,3.0,86,0.00,,---,0.00,VWS V14.01,2013-12-04 02:04:00,
2013-12-03 21:05:00,52.3,48.2,29.97,SW,226,0.0,3.0,86,0.00,,---,0.00,VWS V14.01,2013-12-04 02:05:00,
2013-12-03 21:09:00,52.5,48.4,29.97,SSW,208,1.0,4.0,86,0.00,,---,0.00,VWS V14.01,2013-12-04 02:09:00,
2013-12-03 21:10:00,52.5,48.4,29.97,SSW,208,1.0,4.0,86,0.00,,---,0.00,VWS V14.01,2013-12-04 02:10:00,
2013-12-03 21:14:00,52.6,48.2,29.97,SSW,208,1.0,1.0,85,0.00,,---,0.00,VWS V14.01,2013-12-04 02:14:00,
2013-12-03 21:15:00,52.6,48.2,29.97,SSW,208,1.0,1.0,85,0.00,,---,0.00,VWS V14.01,2013-12-04 02:15:00,
2013-12-03 21:19:00,52.6,48.2,29.97,SSW,208,0.0,1.0,85,0.00,,---,0.00,VWS V14.01,2013-12-04 02:19:00,
2013-12-03 21:20:00,52.6,48.2,29.97,SSW,208,0.0,1.0,85,0.00,,---,0.00,VWS V14.01,2013-12-04 02:20:00,
2013-12-03 21:24:00,52.6,48.2,29.98,SSW,208,0.0,1.0,85,0.00,,---,0.00,VWS V14.01,2013-12-04 02:24:00,
2013-12-03 21:25:00,52.6,48.2,29.98,SSW,208,0.0,1.0,85,0.00,,---,0.00,VWS V14.01,2013-12-04 02:25:00,
2013-12-03 21:29:00,52.6,47.9,29.98,East,94,0.0,2.0,84,0.00,,---,0.00,VWS V14.01,2013-12-04 02:29:00,
2013-12-03 21:30:00,52.6,47.9,29.98,East,94,0.0,2.0,84,0.00,,---,0.00,VWS V14.01,2013-12-04 02:30:00,
2013-12-03 21:35:00,52.7,48.0,29.98,East,94,0.0,1.0,84,0.00,,---,0.00,VWS V14.01,2013-12-04 02:35:00,
2013-12-03 21:39:00,52.7,48.0,29.98,East,94,0.0,1.0,84,0.00,,---,0.00,VWS V14.01,2013-12-04 02:39:00,
2013-12-03 21:40:00,52.7,48.0,29.98,East,94,0.0,1.0,84,0.00,,---,0.00,VWS V14.01,2013-12-04 02:40:00,
2013-12-03 21:44:00,52.7,48.0,29.98,SE,134,0.0,2.0,84,0.00,,---,0.00,VWS V14.01,2013-12-04 02:44:00,
2013-12-03 21:45:00,52.7,48.0,29.98,SE,134,0.0,2.0,84,0.00,,---,0.00,VWS V14.01,2013-12-04 02:45:00,
2013-12-03 21:49:00,52.8,47.8,29.98,SW,227,0.0,3.0,83,0.00,,---,0.00,VWS V14.01,2013-12-04 02:49:00,
2013-12-03 21:50:00,52.8,47.8,29.98,SW,227,0.0,3.0,83,0.00,,---,0.00,VWS V14.01,2013-12-04 02:50:00,
2013-12-03 21:55:00,52.8,47.8,29.98,SW,227,0.0,2.0,83,0.00,,---,0.00,VWS V14.01,2013-12-04 02:55:00,
2013-12-03 21:59:00,52.8,47.8,29.98,SW,227,0.0,0.0,83,0.00,,---,0.00,VWS V14.01,2013-12-04 02:59:00,
2013-12-03 22:00:00,52.8,47.8,29.98,SW,227,0.0,0.0,83,0.00,,---,0.00,VWS V14.01,2013-12-04 03:00:00,
2013-12-03 22:04:00,52.9,47.9,29.98,SW,227,0.0,0.0,83,0.00,,---,0.00,VWS V14.01,2013-12-04 03:04:00,
2013-12-03 22:05:00,52.9,47.9,29.98,SW,227,0.0,0.0,83,0.00,,---,0.00,VWS V14.01,2013-12-04 03:05:00,
2013-12-03 22:09:00,52.9,47.9,29.99,SW,227,0.0,2.0,83,0.00,,---,0.00,VWS V14.01,2013-12-04 03:09:00,
2013-12-03 22:10:00,52.9,47.9,29.99,SW,227,0.0,2.0,83,0.00,,---,0.00,VWS V14.01,2013-12-04 03:10:00,
2013-12-03 22:14:00,52.8,47.8,29.99,SW,227,0.0,0.0,83,0.00,,---,0.00,VWS V14.01,2013-12-04 03:14:00,
2013-12-03 22:15:00,52.8,47.8,29.99,SW,227,0.0,0.0,83,0.00,,---,0.00,VWS V14.01,2013-12-04 03:15:00,
2013-12-03 22:19:00,52.8,47.8,29.99,SW,227,0.0,0.0,83,0.00,,---,0.00,VWS V14.01,2013-12-04 03:19:00,
2013-12-03 22:20:00,52.8,47.8,29.99,SW,227,0.0,0.0,83,0.00,,---,0.00,VWS V14.01,2013-12-04 03:20:00,
2013-12-03 22:24:00,52.8,47.8,29.99,SW,227,0.0,0.0,83,0.00,,---,0.00,VWS V14.01,2013-12-04 03:24:00,
2013-12-03 22:25:00,52.8,47.8,29.99,SW,227,0.0,0.0,83,0.00,,---,0.00,VWS V14.01,2013-12-04 03:25:00,
2013-12-03 22:29:00,52.8,47.8,29.99,SW,227,0.0,0.0,83,0.00,,---,0.00,VWS V14.01,2013-12-04 03:29:00,
2013-12-03 22:30:00,52.8,47.8,29.99,SW,227,0.0,0.0,83,0.00,,---,0.00,VWS V14.01,2013-12-04 03:30:00,
2013-12-03 22:35:00,52.8,47.8,29.99,SW,227,0.0,0.0,83,0.00,,---,0.00,VWS V14.01,2013-12-04 03:35:00,
2013-12-03 22:39:00,52.8,47.8,29.99,SW,227,0.0,0.0,83,0.00,,---,0.00,VWS V14.01,2013-12-04 03:39:00,
2013-12-03 22:40:00,52.8,47.8,29.99,SW,227,0.0,0.0,83,0.00,,---,0.00,VWS V14.01,2013-12-04 03:40:00,
2013-12-03 22:44:00,52.8,47.8,29.99,SW,227,0.0,0.0,83,0.00,,---,0.00,VWS V14.01,2013-12-04 03:44:00,
2013-12-03 22:45:00,52.8,47.8,29.99,SW,227,0.0,0.0,83,0.00,,---,0.00,VWS V14.01,2013-12-04 03:45:00,
2013-12-03 22:49:00,52.8,47.8,29.99,SW,227,0.0,0.0,83,0.00,,---,0.00,VWS V14.01,2013-12-04 03:49:00,
2013-12-03 22:50:00,52.8,47.8,29.99,SW,227,0.0,0.0,83,0.00,,---,0.00,VWS V14.01,2013-12-04 03:50:00,
2013-12-03 22:54:00,52.7,47.7,30.00,SW,227,0.0,0.0,83,0.00,,---,0.00,VWS V14.01,2013-12-04 03:54:00,
2013-12-03 22:55:00,52.7,47.7,30.00,SW,227,0.0,0.0,83,0.00,,---,0.00,VWS V14.01,2013-12-04 03:55:00,
2013-12-03 22:59:00,52.7,48.0,30.00,SW,227,0.0,0.0,84,0.00,,---,0.00,VWS V14.01,2013-12-04 03:59:00,
2013-12-03 23:00:00,52.7,48.0,30.00,SW,227,0.0,0.0,84,0.00,,---,0.00,VWS V14.01,2013-12-04 04:00:00,
2013-12-03 23:04:00,52.7,48.0,30.00,SW,227,0.0,0.0,84,0.00,,---,0.00,VWS V14.01,2013-12-04 04:04:00,
2013-12-03 23:05:00,52.7,48.0,30.00,SW,227,0.0,0.0,84,0.00,,---,0.00,VWS V14.01,2013-12-04 04:05:00,
2013-12-03 23:09:00,52.7,48.0,29.99,ESE,119,0.0,2.0,84,0.00,,---,0.00,VWS V14.01,2013-12-04 04:09:00,
2013-12-03 23:10:00,52.7,48.0,29.99,ESE,119,0.0,2.0,84,0.00,,---,0.00,VWS V14.01,2013-12-04 04:10:00,
2013-12-03 23:15:00,52.7,48.0,30.00,ESE,119,0.0,1.0,84,0.00,,---,0.00,VWS V14.01,2013-12-04 04:15:00,
2013-12-03 23:19:00,52.7,48.0,30.00,WSW,250,2.0,2.0,84,0.00,,---,0.00,VWS V14.01,2013-12-04 04:19:00,
2013-12-03 23:20:00,52.7,48.0,30.00,WSW,250,2.0,2.0,84,0.00,,---,0.00,VWS V14.01,2013-12-04 04:20:00,
2013-12-03 23:24:00,52.7,48.0,30.00,WSW,250,0.0,2.0,84,0.00,,---,0.00,VWS V14.01,2013-12-04 04:24:00,
2013-12-03 23:25:00,52.7,48.0,30.00,WSW,250,0.0,2.0,84,0.00,,---,0.00,VWS V14.01,2013-12-04 04:25:00,
2013-12-03 23:29:00,52.7,48.0,30.00,WSW,250,0.0,0.0,84,0.00,,---,0.00,VWS V14.01,2013-12-04 04:29:00,
2013-12-03 23:30:00,52.7,48.0,30.00,WSW,250,0.0,0.0,84,0.00,,---,0.00,VWS V14.01,2013-12-04 04:30:00,
2013-12-03 23:34:00,52.7,48.0,30.00,WSW,250,0.0,0.0,84,0.00,,---,0.00,VWS V14.01,2013-12-04 04:34:00,
2013-12-03 23:35:00,52.7,48.0,30.00,WSW,250,0.0,0.0,84,0.00,,---,0.00,VWS V14.01,2013-12-04 04:35:00,
2013-12-03 23:39:00,52.6,47.9,30.00,WSW,250,0.0,0.0,84,0.00,,---,0.00,VWS V14.01,2013-12-04 04:39:00,
2013-12-03 23:40:00,52.6,47.9,30.00,WSW,250,0.0,0.0,84,0.00,,---,0.00,VWS V14.01,2013-12-04 04:40:00,
2013-12-03 23:45:00,52.6,47.9,30.00,WSW,250,0.0,0.0,84,0.00,,---,0.00,VWS V14.01,2013-12-04 04:45:00,
2013-12-03 23:49:00,52.5,47.8,30.00,WSW,250,0.0,0.0,84,0.00,,---,0.00,VWS V14.01,2013-12-04 04:49:00,
2013-12-03 23:50:00,52.5,47.8,30.00,WSW,250,0.0,0.0,84,0.00,,---,0.00,VWS V14.01,2013-12-04 04:50:00,
2013-12-03 23:54:00,52.5,48.1,30.00,WSW,250,0.0,0.0,85,0.00,,---,0.00,VWS V14.01,2013-12-04 04:54:00,
2013-12-03 23:55:00,52.5,48.1,30.00,WSW,250,0.0,0.0,85,0.00,,---,0.00,VWS V14.01,2013-12-04 04:55:00,
2013-12-03 23:59:00,52.4,48.3,30.00,WSW,250,0.0,0.0,86,0.00,,---,0.00,VWS V14.01,2013-12-04 04:59:00,